Wednesday, November 22, 2017, 9:02 AM GMT
Back to Local

CYWA, Petawawa, Ont.

Location: , , Canada Lat: 45.95
Local Time: 9:02 AM GMT ( 9:02 GMT) Lon: -77.317
Time Zone: GMT Elev: 426 ft

Show me the last for .
Show Decoded

2017-11-22 08:00 METAR CYWA 220800Z AUTO 32011KT 9SM OVC030 01/M03 A2989 RMK SLP129 =
2017-11-22 07:00 METAR CYWA 220700Z AUTO 28004KT 9SM FEW032 BKN043 02/M04 A2986 RMK SLP118 =
2017-11-22 06:00 METAR CYWA 220600Z AUTO 28005KT 230V310 9SM OVC039 OVC058 03/M03 A2983 RMK
                 SLP108 =
2017-11-22 05:00 METAR CYWA 220500Z AUTO 28003KT 9SM OVC035 02/M03 A2982 RMK SLP103 =
2017-11-22 04:00 METAR CYWA 220400Z AUTO 27006KT 9SM 03/M03 A2980 RMK SLP098 =
2017-11-22 03:00 METAR CYWA 220300Z AUTO 26008KT 9SM 04/M03 A2979 RMK SLP093 =
2017-11-22 02:00 METAR CYWA 220200Z AUTO 27008KT 9SM OVC040 04/00 A2977 RMK SLP086 =
2017-11-22 01:34 METAR CYWA 220134Z AUTO 25004KT 210V270 9SM FEW020 BKN055 04/02 A2975 =
2017-11-22 01:30 METAR CYWA 220130Z AUTO 25003KT 210V270 9SM BKN020 04/02 A2975 =
2017-11-22 01:00 METAR CYWA 220100Z AUTO 26004KT 230V300 7SM -RA OVC024 05/03 A2974 RMK SLP078 =
2017-11-22 00:50 METAR CYWA 220050Z 29007KT 10SM -SHRA OVC025 04/02 A2974 RMK SC8 DA-475FT LAST
                 STFD OBS/NEXT 221600 UTC SLP077 =
2017-11-22 00:30 METAR CYWA 220030Z 28009KT 230V300 15SM -SHRA OVC030 06/01 A2972 RMK SC8
                 DA-253FT SLP072 =
2017-11-22 00:00 METAR CYWA 220000Z 23003KT 15SM OVC035 06/00 A2970 RMK SC8 DA-282FT SLP065 =
2017-11-21 23:00 METAR CYWA 212300Z 22007KT 180V240 15SM OVC090 06/M00 A2966 RMK AC8 DA-165FT
                 SLP051 =
2017-11-21 22:00 METAR CYWA 212200Z 19005KT 15SM FEW040 OVC090 06/00 A2965 RMK SC2AC6 DA-188FT
                 SLP047 =
2017-11-21 21:00 METAR CYWA 212100Z 21004KT 190V250 15SM OVC040 06/00 A2964 RMK SC8 DA-190FT
                 SLP043 =
2017-11-21 20:00 METAR CYWA 212000Z 22005KT 180V280 15SM OVC040 07/00 A2961 RMK SC8 DA-18FT
                 SLP032 =
2017-11-21 19:00 METAR CYWA 211900Z 21003KT 180V250 15SM OVC035 06/01 A2960 RMK SC8 DA-165FT
                 SLP028 =
2017-11-21 18:00 METAR CYWA 211800Z 21006KT 180V270 15SM OVC035 06/01 A2959 RMK SC8 DA-116FT
                 SLP025 =
2017-11-21 17:00 METAR CYWA 211700Z 20005KT 15SM SCT035 BKN160 BKN220 05/01 A2958 RMK SC4AC1CI2
                 DA-153FT SLP023 =
2017-11-21 16:00 METAR CYWA 211600Z 15007KT 15SM FEW015 SCT160 BKN220 05/01 A2959 RMK SF1AC4CI3
                 DA-201FT SLP026 =
2017-11-21 15:00 METAR CYWA 211500Z 13008KT 15SM FEW030 BKN160 03/01 A2959 RMK SC2AC4 DA-474FT
                 SLP028 =
2017-11-21 14:00 METAR CYWA 211400Z 13009KT 15SM SCT030 BKN160 02/00 A2960 RMK SC3AC4 DA-612FT
                 SLP030 =
2017-11-21 13:00 METAR CYWA 211300Z 13008KT 9SM FEW005 BKN030 BKN160 01/M01 A2960 RMK SF1SC5AC2
                 DA-792FT SLP033 =
2017-11-21 12:00 METAR CYWA 211200Z 14008KT 7SM SCT005 BKN030 M01/M02 A2962 RMK SF3SC4 DA-997FT
                 FST STFD OBS SLP038 =
2017-11-21 11:00 METAR CYWA 211100Z AUTO 12009KT 8SM OVC004 M01/M02 A2964 RMK SLP044 =
2017-11-21 10:14 METAR CYWA 211014Z AUTO 14010KT 9SM OVC004 M01/M03 A2966 =
2017-11-21 10:00 METAR CYWA 211000Z AUTO 13011KT 9SM OVC005 M01/M03 A2966 RMK SLP053 =

Support USWX by starting your Amazon purchase here.